createdAt,value
2018-08-25T00:00:40.179Z,13.76
2018-08-25T00:01:40.153Z,13.75
2018-08-25T00:02:40.174Z,13.80
2018-08-25T00:03:40.139Z,13.84
2018-08-25T00:04:40.122Z,13.91
2018-08-25T00:05:40.135Z,13.99
2018-08-25T00:06:40.102Z,13.88
2018-08-25T00:07:40.108Z,13.91
2018-08-25T00:08:40.082Z,13.96
2018-08-25T00:09:40.069Z,14.01
2018-08-25T00:10:40.073Z,13.94
2018-08-25T00:11:40.050Z,13.94
2018-08-25T00:12:40.039Z,13.88
2018-08-25T00:13:40.069Z,13.94
2018-08-25T00:14:40.019Z,13.91
2018-08-25T00:15:40.019Z,13.83
2018-08-25T00:16:39.998Z,13.79
2018-08-25T00:17:39.986Z,13.86
2018-08-25T00:18:39.973Z,13.72
2018-08-25T00:19:40.006Z,13.66
2018-08-25T00:20:39.953Z,13.63
2018-08-25T00:21:39.958Z,13.61
2018-08-25T00:22:39.932Z,13.66
2018-08-25T00:23:39.923Z,13.65
2018-08-25T00:24:39.912Z,13.63
2018-08-25T00:25:39.941Z,13.69
2018-08-25T00:26:39.903Z,13.66
2018-08-25T00:27:39.880Z,13.54
2018-08-25T00:28:39.869Z,13.65
2018-08-25T00:29:39.859Z,13.71
2018-08-25T00:30:39.848Z,13.79
2018-08-25T00:31:39.890Z,13.80
2018-08-25T00:32:39.826Z,13.80
2018-08-25T00:33:39.816Z,13.75
2018-08-25T00:34:39.806Z,13.81
2018-08-25T00:35:39.797Z,13.72
2018-08-25T00:36:39.804Z,13.63
2018-08-25T00:37:39.830Z,13.66
2018-08-25T00:38:39.766Z,13.69
2018-08-25T00:39:39.756Z,13.62
2018-08-25T00:40:39.743Z,13.63
2018-08-25T00:41:39.748Z,13.53
2018-08-25T00:42:39.724Z,13.50
2018-08-25T00:43:39.753Z,13.55
2018-08-25T00:44:39.701Z,13.59
2018-08-25T00:45:39.694Z,13.66
2018-08-25T00:46:39.706Z,13.65
2018-08-25T00:47:39.695Z,13.66
2018-08-25T00:48:39.661Z,13.54
2018-08-25T00:49:39.689Z,13.55
2018-08-25T00:50:39.640Z,13.53
2018-08-25T00:51:39.642Z,13.68
2018-08-25T00:52:39.617Z,13.62
2018-08-25T00:53:39.609Z,13.62
2018-08-25T00:54:39.595Z,13.54
2018-08-25T00:55:39.612Z,13.54
2018-08-25T00:56:39.591Z,13.55
2018-08-25T00:57:39.567Z,13.43
2018-08-25T00:58:39.563Z,13.46
2018-08-25T00:59:39.564Z,13.35
2018-08-25T01:00:39.555Z,13.48
2018-08-25T01:01:39.616Z,13.38
2018-08-25T01:02:39.564Z,13.38
2018-08-25T01:03:39.542Z,13.38
2018-08-25T01:04:39.538Z,13.36
2018-08-25T01:05:39.480Z,13.36
2018-08-25T01:06:39.480Z,13.41
2018-08-25T01:07:39.461Z,13.29
2018-08-25T01:08:39.493Z,13.36
2018-08-25T01:09:39.446Z,13.39
2018-08-25T01:10:39.424Z,13.25
2018-08-25T01:11:39.431Z,13.35
2018-08-25T01:12:39.405Z,13.25
2018-08-25T01:13:39.398Z,13.29
2018-08-25T01:14:39.521Z,13.17
2018-08-25T01:15:39.431Z,13.29
2018-08-25T01:16:39.420Z,13.27
2018-08-25T01:17:39.351Z,13.43
2018-08-25T01:18:39.340Z,13.44
2018-08-25T01:19:39.330Z,13.53
2018-08-25T01:20:39.357Z,13.55
2018-08-25T01:21:39.361Z,13.61
2018-08-25T01:22:39.301Z,13.59
2018-08-25T01:23:39.291Z,13.63
2018-08-25T01:24:39.276Z,13.65
2018-08-25T01:25:39.268Z,13.63
2018-08-25T01:26:39.285Z,13.65
2018-08-25T01:27:39.287Z,13.68
2018-08-25T01:28:39.234Z,13.63
2018-08-25T01:29:39.228Z,13.63
2018-08-25T01:30:39.218Z,13.71
2018-08-25T01:31:39.269Z,13.72
2018-08-25T01:32:39.209Z,13.68
2018-08-25T01:33:39.237Z,13.83
2018-08-25T01:34:39.174Z,13.84
2018-08-25T01:35:39.168Z,13.90
2018-08-25T01:36:39.150Z,13.93
2018-08-25T01:37:39.155Z,13.86
2018-08-25T01:38:39.132Z,13.83
2018-08-25T01:39:39.163Z,13.80
2018-08-25T01:40:39.107Z,13.68
2018-08-25T01:41:39.097Z,13.54
2018-08-25T01:42:39.101Z,13.66
2018-08-25T01:43:39.076Z,13.66
2018-08-25T01:44:39.102Z,13.62
2018-08-25T01:45:39.056Z,13.51
2018-08-25T01:46:39.047Z,13.51
2018-08-25T01:47:39.045Z,13.51
2018-08-25T01:48:39.023Z,13.48
2018-08-25T01:49:39.013Z,13.51
2018-08-25T01:50:39.007Z,13.47
2018-08-25T01:51:39.025Z,13.44
2018-08-25T01:52:38.998Z,13.41
2018-08-25T01:53:38.970Z,13.55
2018-08-25T01:54:38.961Z,13.63
2018-08-25T01:55:38.952Z,13.68
2018-08-25T01:56:38.942Z,13.65
2018-08-25T01:57:38.979Z,13.69
2018-08-25T01:58:38.916Z,13.71
2018-08-25T01:59:38.906Z,13.68
2018-08-25T02:00:38.896Z,13.75
2018-08-25T02:01:38.885Z,13.75
2018-08-25T02:02:38.944Z,13.81
2018-08-25T02:03:38.907Z,13.90
2018-08-25T02:04:38.857Z,13.91
2018-08-25T02:05:38.843Z,13.84
2018-08-25T02:06:38.837Z,13.81
2018-08-25T02:07:38.850Z,13.81
2018-08-25T02:08:38.812Z,13.87
2018-08-25T02:09:38.842Z,13.79
2018-08-25T02:10:38.791Z,13.76
2018-08-25T02:11:38.787Z,13.73
2018-08-25T02:12:38.780Z,13.73
2018-08-25T02:13:38.777Z,13.69
2018-08-25T02:14:38.749Z,13.69
2018-08-25T02:15:38.768Z,13.69
2018-08-25T02:16:38.730Z,13.66
2018-08-25T02:17:38.717Z,13.62
2018-08-25T02:18:38.725Z,13.57
2018-08-25T02:19:38.697Z,13.55
2018-08-25T02:20:38.687Z,13.54
2018-08-25T02:21:38.734Z,13.61
2018-08-25T02:22:38.665Z,13.65
2018-08-25T02:23:38.669Z,13.62
2018-08-25T02:24:38.643Z,13.53
2018-08-25T02:25:38.634Z,13.54
2018-08-25T02:26:38.622Z,13.53
2018-08-25T02:27:38.648Z,13.53
2018-08-25T02:28:38.662Z,13.54
2018-08-25T02:29:38.604Z,13.55
2018-08-25T02:30:38.584Z,13.55
2018-08-25T02:31:38.571Z,13.57
2018-08-25T02:32:38.563Z,13.57
2018-08-25T02:33:38.599Z,13.57
2018-08-25T02:34:38.544Z,13.51
2018-08-25T02:35:38.527Z,13.53
2018-08-25T02:36:38.519Z,13.47
2018-08-25T02:37:38.507Z,13.38
2018-08-25T02:38:38.516Z,13.38
2018-08-25T02:39:38.522Z,13.41
2018-08-25T02:40:38.475Z,13.35
2018-08-25T02:41:38.464Z,13.51
2018-08-25T02:42:38.511Z,13.39
2018-08-25T02:43:38.496Z,13.44
2018-08-25T02:44:38.455Z,13.41
2018-08-25T02:45:38.439Z,13.39
2018-08-25T02:46:38.644Z,13.41
2018-08-25T02:47:38.441Z,13.39
2018-08-25T02:48:38.404Z,13.54
2018-08-25T02:49:38.378Z,13.53
2018-08-25T02:50:38.368Z,13.65
2018-08-25T02:51:38.357Z,13.62
2018-08-25T02:52:38.394Z,13.62
2018-08-25T02:53:38.363Z,13.61
2018-08-25T02:54:38.325Z,13.65
2018-08-25T02:55:38.329Z,13.62
2018-08-25T02:56:38.307Z,13.59
2018-08-25T02:57:38.294Z,13.59
2018-08-25T02:58:38.324Z,13.55
2018-08-25T02:59:38.289Z,13.59
2018-08-25T03:00:38.262Z,13.55
2018-08-25T03:01:38.254Z,13.51
2018-08-25T03:02:38.246Z,13.54
2018-08-25T03:03:38.233Z,13.53
2018-08-25T03:04:38.273Z,13.53
2018-08-25T03:05:38.210Z,13.41
2018-08-25T03:06:38.201Z,13.36
2018-08-25T03:07:38.191Z,13.28
2018-08-25T03:08:38.179Z,13.24
2018-08-25T03:09:38.183Z,13.16
2018-08-25T03:10:38.178Z,13.16
2018-08-25T03:11:38.150Z,13.14
2018-08-25T03:12:38.138Z,13.06
2018-08-25T03:13:38.233Z,13.04
2018-08-25T03:14:38.129Z,13.03
2018-08-25T03:15:38.105Z,13.06
2018-08-25T03:16:38.131Z,12.99
2018-08-25T03:17:38.085Z,13.10
2018-08-25T03:18:38.077Z,12.95
2018-08-25T03:19:38.078Z,12.96
2018-08-25T03:20:38.053Z,13.06
2018-08-25T03:21:38.053Z,13.12
2018-08-25T03:22:38.060Z,13.29
2018-08-25T03:23:38.019Z,13.28
2018-08-25T03:24:38.029Z,13.36
2018-08-25T03:25:37.999Z,13.38
2018-08-25T03:26:37.993Z,13.39
2018-08-25T03:27:37.977Z,13.39
2018-08-25T03:28:38.001Z,13.28
2018-08-25T03:29:37.989Z,13.27
2018-08-25T03:30:37.950Z,13.29
2018-08-25T03:31:37.937Z,13.39
2018-08-25T03:32:37.926Z,13.43
2018-08-25T03:33:37.916Z,13.39
2018-08-25T03:34:37.953Z,13.41
2018-08-25T03:35:37.907Z,13.38
2018-08-25T03:36:37.890Z,13.39
2018-08-25T03:37:37.874Z,13.53
2018-08-25T03:38:37.863Z,13.61
2018-08-25T03:39:37.852Z,13.62
2018-08-25T03:40:37.897Z,13.66
2018-08-25T03:41:37.833Z,13.69
2018-08-25T03:42:37.819Z,13.75
2018-08-25T03:43:37.813Z,13.68
2018-08-25T03:44:37.806Z,13.71
2018-08-25T03:45:37.804Z,13.72
2018-08-25T03:46:37.819Z,13.54
2018-08-25T03:47:37.777Z,13.55
2018-08-25T03:48:37.758Z,13.65
2018-08-25T03:49:37.746Z,13.48
2018-08-25T03:50:37.751Z,13.51
2018-08-25T03:51:37.724Z,13.38
2018-08-25T03:52:37.715Z,13.38
2018-08-25T03:53:37.738Z,13.38
2018-08-25T03:54:37.693Z,13.25
2018-08-25T03:55:37.700Z,13.29
2018-08-25T03:56:37.671Z,13.24
2018-08-25T03:57:37.662Z,13.27
2018-08-25T03:58:37.651Z,13.24
2018-08-25T03:59:37.765Z,13.17
2018-08-25T04:00:37.650Z,13.12
2018-08-25T04:01:37.700Z,13.07
2018-08-25T04:02:37.613Z,13.04
2018-08-25T04:03:37.604Z,13.01
2018-08-25T04:04:37.653Z,12.96
2018-08-25T04:05:37.720Z,12.98
2018-08-25T04:06:37.574Z,12.96
2018-08-25T04:07:37.563Z,12.95
2018-08-25T04:08:37.564Z,13.04
2018-08-25T04:09:37.580Z,12.99
2018-08-25T04:10:37.596Z,12.92
2018-08-25T04:11:37.555Z,12.98
2018-08-25T04:12:37.529Z,12.99
2018-08-25T04:13:37.614Z,12.95
2018-08-25T04:14:37.632Z,12.96
2018-08-25T04:15:37.537Z,12.91
2018-08-25T04:16:37.469Z,12.95
2018-08-25T04:17:37.452Z,13.01
2018-08-25T04:18:37.470Z,12.98
2018-08-25T04:19:37.436Z,12.99
2018-08-25T04:20:37.445Z,13.03
2018-08-25T04:21:37.410Z,13.01
2018-08-25T04:22:37.399Z,12.95
2018-08-25T04:23:37.393Z,12.98
2018-08-25T04:24:37.410Z,13.07
2018-08-25T04:25:37.369Z,12.98
2018-08-25T04:26:37.371Z,13.10
2018-08-25T04:27:37.348Z,13.01
2018-08-25T04:28:37.337Z,12.94
2018-08-25T04:29:37.326Z,12.98
2018-08-25T04:30:37.362Z,13.01
2018-08-25T04:31:37.323Z,13.06
2018-08-25T04:32:37.296Z,13.06
2018-08-25T04:33:37.339Z,13.12
2018-08-25T04:34:37.273Z,13.06
2018-08-25T04:35:37.264Z,13.03
2018-08-25T04:36:37.314Z,13.06
2018-08-25T04:37:37.244Z,13.06
2018-08-25T04:38:37.234Z,13.06
2018-08-25T04:39:37.221Z,13.03
2018-08-25T04:40:37.212Z,13.03
2018-08-25T04:41:37.216Z,13.10
2018-08-25T04:42:37.236Z,13.10
2018-08-25T04:43:37.186Z,13.07
2018-08-25T04:44:37.170Z,13.09
2018-08-25T04:45:37.156Z,13.12
2018-08-25T04:46:37.168Z,13.13
2018-08-25T04:47:37.138Z,13.17
2018-08-25T04:48:37.171Z,13.16
2018-08-25T04:49:37.119Z,13.04
2018-08-25T04:50:37.105Z,13.21
2018-08-25T04:51:37.154Z,13.25
2018-08-25T04:52:37.087Z,13.19
2018-08-25T04:53:37.080Z,13.27
2018-08-25T04:54:37.105Z,13.27
2018-08-25T04:55:37.055Z,13.29
2018-08-25T04:56:37.060Z,13.21
2018-08-25T04:57:37.031Z,13.24
2018-08-25T04:58:37.023Z,13.25
2018-08-25T04:59:37.012Z,13.25
2018-08-25T05:00:37.037Z,13.24
2018-08-25T05:01:37.026Z,13.25
2018-08-25T05:02:36.979Z,13.32
2018-08-25T05:03:36.968Z,13.36
2018-08-25T05:04:36.963Z,13.55
2018-08-25T05:05:36.953Z,13.65
2018-08-25T05:06:36.977Z,13.68
2018-08-25T05:07:37.012Z,13.61
2018-08-25T05:08:36.916Z,13.69
2018-08-25T05:09:36.907Z,13.75
2018-08-25T05:10:36.896Z,13.79
2018-08-25T05:11:36.891Z,13.72
2018-08-25T05:12:36.939Z,13.79
2018-08-25T05:13:36.866Z,13.80
2018-08-25T05:14:36.854Z,13.75
2018-08-25T05:15:36.843Z,13.75
2018-08-25T05:16:36.832Z,13.76
2018-08-25T05:17:36.840Z,13.73
2018-08-25T05:18:36.851Z,13.73
2018-08-25T05:19:36.811Z,13.87
2018-08-25T05:20:36.790Z,13.87
2018-08-25T05:21:36.784Z,13.88
2018-08-25T05:22:36.790Z,13.98
2018-08-25T05:23:36.756Z,14.09
2018-08-25T05:24:36.801Z,14.21
2018-08-25T05:25:36.740Z,14.34
2018-08-25T05:26:36.728Z,14.45
2018-08-25T05:27:36.730Z,14.52
2018-08-25T05:28:36.710Z,14.61
2018-08-25T05:29:36.693Z,14.64
2018-08-25T05:30:36.681Z,14.61
2018-08-25T05:31:36.708Z,14.57
2018-08-25T05:32:36.673Z,14.52
2018-08-25T05:33:36.649Z,14.49
2018-08-25T05:34:36.645Z,14.52
2018-08-25T05:35:36.627Z,14.53
2018-08-25T05:36:36.618Z,14.48
2018-08-25T05:37:36.621Z,14.49
2018-08-25T05:38:36.635Z,14.49
2018-08-25T05:39:36.585Z,14.64
2018-08-25T05:40:36.678Z,14.71
2018-08-25T05:41:36.641Z,14.78
2018-08-25T05:42:36.661Z,14.75
2018-08-25T05:43:36.598Z,14.91
2018-08-25T05:44:36.610Z,14.83
2018-08-25T05:45:36.574Z,14.80
2018-08-25T05:46:36.506Z,14.82
2018-08-25T05:47:36.545Z,14.83
2018-08-25T05:48:36.488Z,14.83
2018-08-25T05:49:36.480Z,14.95
2018-08-25T05:50:36.467Z,14.87
2018-08-25T05:51:36.503Z,14.93
2018-08-25T05:52:36.457Z,15.05
2018-08-25T05:53:36.431Z,15.07
2018-08-25T05:54:36.419Z,15.13
2018-08-25T05:55:36.409Z,15.15
2018-08-25T05:56:36.425Z,15.11
2018-08-25T05:57:36.461Z,15.11
2018-08-25T05:58:36.383Z,15.11
2018-08-25T05:59:36.368Z,15.11
2018-08-25T06:00:36.357Z,15.03
2018-08-25T06:01:36.343Z,15.01
2018-08-25T06:02:36.405Z,15.00
2018-08-25T06:03:36.323Z,15.03
2018-08-25T06:04:36.315Z,15.01
2018-08-25T06:05:36.301Z,15.00
2018-08-25T06:06:36.323Z,15.00
2018-08-25T06:07:36.286Z,14.91
2018-08-25T06:08:36.324Z,14.91
2018-08-25T06:09:36.257Z,14.98
2018-08-25T06:10:36.248Z,15.07
2018-08-25T06:11:36.235Z,15.01
2018-08-25T06:12:36.226Z,15.03
2018-08-25T06:13:36.361Z,15.04
2018-08-25T06:14:36.243Z,15.03
2018-08-25T06:15:36.199Z,15.07
2018-08-25T06:16:36.184Z,15.13
2018-08-25T06:17:36.215Z,15.13
2018-08-25T06:18:36.187Z,15.11
2018-08-25T06:19:36.150Z,15.12
2018-08-25T06:20:36.157Z,15.19
2018-08-25T06:21:36.129Z,15.18
2018-08-25T06:22:36.119Z,15.15
2018-08-25T06:23:36.127Z,15.12
2018-08-25T06:24:36.097Z,15.19
2018-08-25T06:25:36.094Z,15.12
2018-08-25T06:26:36.173Z,15.13
2018-08-25T06:27:36.067Z,15.18
2018-08-25T06:28:36.073Z,15.19
2018-08-25T06:29:36.055Z,15.23
2018-08-25T06:30:36.035Z,15.19
2018-08-25T06:31:36.033Z,15.25
2018-08-25T06:32:36.069Z,15.16
2018-08-25T06:33:36.015Z,15.19
2018-08-25T06:34:36.001Z,15.20
2018-08-25T06:35:35.980Z,15.28
2018-08-25T06:36:36.028Z,15.22
2018-08-25T06:37:35.959Z,15.27
2018-08-25T06:38:36.026Z,15.28
2018-08-25T06:39:35.956Z,15.43
2018-08-25T06:40:35.947Z,15.49
2018-08-25T06:41:35.916Z,15.62
2018-08-25T06:42:35.943Z,15.70
2018-08-25T06:43:36.016Z,15.68
2018-08-25T06:44:35.883Z,15.77
2018-08-25T06:45:35.924Z,15.76
2018-08-25T06:46:35.864Z,15.78
2018-08-25T06:47:35.850Z,15.74
2018-08-25T06:48:35.848Z,15.74
2018-08-25T06:49:35.842Z,15.67
2018-08-25T06:50:35.816Z,15.66
2018-08-25T06:51:35.833Z,15.60
2018-08-25T06:52:35.795Z,15.62
2018-08-25T06:53:35.787Z,15.58
2018-08-25T06:54:35.786Z,15.52
2018-08-25T06:55:35.764Z,15.56
2018-08-25T06:56:35.756Z,15.51
2018-08-25T06:57:35.778Z,15.48
2018-08-25T06:58:35.732Z,15.52
2018-08-25T06:59:35.795Z,15.40
2018-08-25T07:00:35.709Z,15.49
2018-08-25T07:01:35.697Z,15.37
2018-08-25T07:02:35.689Z,15.43
2018-08-25T07:03:35.700Z,15.37
2018-08-25T07:04:35.712Z,15.44
2018-08-25T07:05:35.702Z,15.38
2018-08-25T07:06:35.659Z,15.31
2018-08-25T07:07:35.714Z,15.22
2018-08-25T07:08:35.712Z,15.30
2018-08-25T07:09:35.719Z,15.20
2018-08-25T07:10:35.716Z,15.22
2018-08-25T07:11:35.606Z,15.20
2018-08-25T07:12:35.613Z,15.18
2018-08-25T07:13:35.571Z,15.20
2018-08-25T07:14:35.572Z,15.11
2018-08-25T07:15:35.549Z,15.15
2018-08-25T07:16:35.582Z,15.19
2018-08-25T07:17:35.529Z,15.19
2018-08-25T07:18:35.518Z,15.12
2018-08-25T07:19:35.524Z,15.11
2018-08-25T07:20:35.495Z,15.09
2018-08-25T07:21:35.488Z,15.07
2018-08-25T07:22:35.516Z,15.07
2018-08-25T07:23:35.467Z,15.04
2018-08-25T07:24:35.467Z,14.98
2018-08-25T07:25:35.443Z,14.87
2018-08-25T07:26:35.438Z,14.93
2018-08-25T07:27:35.423Z,14.94
2018-08-25T07:28:35.437Z,14.95
2018-08-25T07:29:35.417Z,14.86
2018-08-25T07:30:35.388Z,14.86
2018-08-25T07:31:35.380Z,14.85
2018-08-25T07:32:35.369Z,14.85
2018-08-25T07:33:35.356Z,14.75
2018-08-25T07:34:35.401Z,14.78
2018-08-25T07:35:35.337Z,14.71
2018-08-25T07:36:35.327Z,14.71
2018-08-25T07:37:35.318Z,14.67
2018-08-25T07:38:35.303Z,14.63
2018-08-25T07:39:35.324Z,14.64
2018-08-25T07:40:35.315Z,14.64
2018-08-25T07:41:35.273Z,14.71
2018-08-25T07:42:35.263Z,14.56
2018-08-25T07:43:35.257Z,14.49
2018-08-25T07:44:35.241Z,14.56
2018-08-25T07:45:35.248Z,14.49
2018-08-25T07:46:35.225Z,14.45
2018-08-25T07:47:35.206Z,14.46
2018-08-25T07:48:35.258Z,14.34
2018-08-25T07:49:35.266Z,14.46
2018-08-25T07:50:35.188Z,14.36
2018-08-25T07:51:35.196Z,14.36
2018-08-25T07:52:35.168Z,14.35
2018-08-25T07:53:35.145Z,14.34
2018-08-25T07:54:35.129Z,14.44
2018-08-25T07:55:35.133Z,14.24
2018-08-25T07:56:35.109Z,14.31
2018-08-25T07:57:35.099Z,14.26
2018-08-25T07:58:35.182Z,14.34
2018-08-25T07:59:35.075Z,14.30
2018-08-25T08:00:35.078Z,14.36
2018-08-25T08:01:35.053Z,14.36
2018-08-25T08:02:35.041Z,14.31
2018-08-25T08:03:35.029Z,14.35
2018-08-25T08:04:35.042Z,14.38
2018-08-25T08:05:35.118Z,14.36
2018-08-25T08:06:34.997Z,14.39
2018-08-25T08:07:34.987Z,14.39
2018-08-25T08:08:34.974Z,14.44
2018-08-25T08:09:34.967Z,14.48
2018-08-25T08:10:35.012Z,14.36
2018-08-25T08:11:34.958Z,14.34
2018-08-25T08:12:34.945Z,14.45
2018-08-25T08:13:34.923Z,14.52
2018-08-25T08:14:34.910Z,14.48
2018-08-25T08:15:34.925Z,14.52
2018-08-25T08:16:34.910Z,14.48
2018-08-25T08:17:34.906Z,14.46
2018-08-25T08:18:34.888Z,14.52
2018-08-25T08:19:34.856Z,14.49
2018-08-25T08:20:34.845Z,14.52
2018-08-25T08:21:34.849Z,14.46
2018-08-25T08:22:34.826Z,14.42
2018-08-25T08:23:34.813Z,14.46
2018-08-25T08:24:34.841Z,14.45
2018-08-25T08:25:34.794Z,14.45
2018-08-25T08:26:34.799Z,14.42
2018-08-25T08:27:34.774Z,14.48
2018-08-25T08:28:34.766Z,14.45
2018-08-25T08:29:34.749Z,14.39
2018-08-25T08:30:34.759Z,14.45
2018-08-25T08:31:34.759Z,14.39
2018-08-25T08:32:34.745Z,14.53
2018-08-25T08:33:34.708Z,14.49
2018-08-25T08:34:34.696Z,14.39
2018-08-25T08:35:34.699Z,14.41
2018-08-25T08:36:34.737Z,14.35
2018-08-25T08:37:34.711Z,14.39
2018-08-25T08:38:34.703Z,14.44
2018-08-25T08:39:34.723Z,14.38
2018-08-25T08:40:34.689Z,14.38
2018-08-25T08:41:34.632Z,14.38
2018-08-25T08:42:34.608Z,14.44
2018-08-25T08:43:34.598Z,14.41
2018-08-25T08:44:34.622Z,14.45
2018-08-25T08:45:34.689Z,14.41
2018-08-25T08:46:34.580Z,14.35
2018-08-25T08:47:34.630Z,14.38
2018-08-25T08:48:34.552Z,14.36
2018-08-25T08:49:46.308Z,14.35
2018-08-25T08:50:34.755Z,14.39
2018-08-25T08:51:34.525Z,14.41
2018-08-25T08:52:34.522Z,14.42
2018-08-25T08:53:34.488Z,14.48
2018-08-25T08:54:34.479Z,14.36
2018-08-25T08:55:34.469Z,14.49
2018-08-25T08:56:34.502Z,14.34
2018-08-25T08:57:34.444Z,14.36
2018-08-25T08:58:34.437Z,14.46
2018-08-25T08:59:34.425Z,14.48
2018-08-25T09:00:34.412Z,14.45
2018-08-25T09:01:34.405Z,14.38
2018-08-25T09:02:34.463Z,14.26
2018-08-25T09:03:34.386Z,14.26
2018-08-25T09:04:34.376Z,14.24
2018-08-25T09:05:34.360Z,14.30
2018-08-25T09:06:34.353Z,14.13
2018-08-25T09:07:34.354Z,14.16
2018-08-25T09:08:34.329Z,14.11
2018-08-25T09:09:34.325Z,14.06
2018-08-25T09:10:34.360Z,14.11
2018-08-25T09:11:34.370Z,14.11
2018-08-25T09:12:34.307Z,14.01
2018-08-25T09:13:34.274Z,13.98
2018-08-25T09:14:34.436Z,13.87
2018-08-25T09:15:34.499Z,13.90
2018-08-25T09:16:34.298Z,13.88
2018-08-25T09:17:35.152Z,13.86
2018-08-25T09:18:34.411Z,13.81
2018-08-25T09:19:34.237Z,13.75
2018-08-25T09:20:34.392Z,13.80
2018-08-25T09:21:34.277Z,13.81
2018-08-25T09:22:34.192Z,13.83
2018-08-25T09:23:34.165Z,13.73
2018-08-25T09:24:34.177Z,13.72
2018-08-25T09:25:34.145Z,13.72
2018-08-25T09:26:34.209Z,13.80
2018-08-25T09:27:34.367Z,13.69
2018-08-25T09:28:34.111Z,13.69
2018-08-25T09:29:34.110Z,13.61
2018-08-25T09:30:34.088Z,13.65
2018-08-25T09:31:34.089Z,13.61
2018-08-25T09:32:34.186Z,13.68
2018-08-25T09:33:34.060Z,13.61
2018-08-25T09:34:34.050Z,13.63
2018-08-25T09:35:34.089Z,13.63
2018-08-25T09:36:34.279Z,13.69
2018-08-25T09:37:34.025Z,13.63
2018-08-25T09:38:34.020Z,13.63
2018-08-25T09:39:33.991Z,13.65
2018-08-25T09:40:34.020Z,13.66
2018-08-25T09:41:34.005Z,13.71
2018-08-25T09:42:33.993Z,13.75
2018-08-25T09:43:33.948Z,13.71
2018-08-25T09:44:33.941Z,13.72
2018-08-25T09:45:33.928Z,13.81
2018-08-25T09:46:33.961Z,13.90
2018-08-25T09:47:33.934Z,13.98
2018-08-25T09:48:33.899Z,13.93
2018-08-25T09:49:33.889Z,13.98
2018-08-25T09:50:33.872Z,13.96
2018-08-25T09:51:33.865Z,13.94
2018-08-25T09:52:33.943Z,14.11
2018-08-25T09:53:33.955Z,14.12
2018-08-25T09:54:33.834Z,14.16
2018-08-25T09:55:33.820Z,14.27
2018-08-25T09:56:33.813Z,14.34
2018-08-25T09:57:33.813Z,14.38
2018-08-25T09:58:33.872Z,14.46
2018-08-25T09:59:33.775Z,14.46
2018-08-25T10:00:33.768Z,14.54
2018-08-25T10:01:33.761Z,14.56
2018-08-25T10:02:33.784Z,14.64
2018-08-25T10:03:34.171Z,14.75
2018-08-25T10:04:33.788Z,14.72
2018-08-25T10:05:33.835Z,14.78
2018-08-25T10:06:33.701Z,14.82
2018-08-25T10:07:33.701Z,14.75
2018-08-25T10:08:33.697Z,14.87
2018-08-25T10:09:33.670Z,14.82
2018-08-25T10:10:33.656Z,14.83
2018-08-25T10:11:33.698Z,14.85
2018-08-25T10:12:33.634Z,14.85
2018-08-25T10:13:33.641Z,14.87
2018-08-25T10:14:33.612Z,14.94
2018-08-25T10:15:33.620Z,14.83
2018-08-25T10:16:33.672Z,14.93
2018-08-25T10:17:33.679Z,14.79
2018-08-25T10:18:33.637Z,14.86
2018-08-25T10:19:33.557Z,14.91
2018-08-25T10:20:33.550Z,14.90
2018-08-25T10:21:33.537Z,14.98
2018-08-25T10:22:33.528Z,14.93
2018-08-25T10:23:33.590Z,14.85
2018-08-25T10:24:33.548Z,14.91
2018-08-25T10:25:33.494Z,14.97
2018-08-25T10:26:33.486Z,14.98
2018-08-25T10:27:33.469Z,14.90
2018-08-25T10:28:33.481Z,14.90
2018-08-25T10:29:33.455Z,14.87
2018-08-25T10:30:33.489Z,14.83
2018-08-25T10:31:33.432Z,14.85
2018-08-25T10:32:33.418Z,14.87
2018-08-25T10:33:33.419Z,14.78
2018-08-25T10:34:33.412Z,14.79
2018-08-25T10:35:33.435Z,14.80
2018-08-25T10:36:33.416Z,14.72
2018-08-25T10:37:33.365Z,14.80
2018-08-25T10:38:33.380Z,14.74
2018-08-25T10:39:33.352Z,14.67
2018-08-25T10:40:33.342Z,14.64
2018-08-25T10:41:33.321Z,14.56
2018-08-25T10:42:33.370Z,14.57
2018-08-25T10:43:33.336Z,14.53
2018-08-25T10:44:33.289Z,14.48
2018-08-25T10:45:33.277Z,14.44
2018-08-25T10:46:33.291Z,14.29
2018-08-25T10:47:33.263Z,14.24
2018-08-25T10:48:33.243Z,14.21
2018-08-25T10:49:33.284Z,14.39
2018-08-25T10:50:33.222Z,14.19
2018-08-25T10:51:33.217Z,14.29
2018-08-25T10:52:33.198Z,14.13
2018-08-25T10:53:33.192Z,14.16
2018-08-25T10:54:33.190Z,14.26
2018-08-25T10:55:33.232Z,14.24
2018-08-25T10:56:33.160Z,14.24
2018-08-25T10:57:33.157Z,14.26
2018-08-25T10:58:33.137Z,14.29
2018-08-25T10:59:33.136Z,14.31
2018-08-25T11:00:33.237Z,14.38
2018-08-25T11:01:33.157Z,14.41
2018-08-25T11:02:33.089Z,14.35
2018-08-25T11:03:33.085Z,14.38
2018-08-25T11:04:33.086Z,14.27
2018-08-25T11:05:33.057Z,14.30
2018-08-25T11:06:33.048Z,14.30
2018-08-25T11:07:33.071Z,14.30
2018-08-25T11:08:33.022Z,14.44
2018-08-25T11:09:33.028Z,14.42
2018-08-25T11:10:33.004Z,14.36
2018-08-25T11:11:32.998Z,14.44
2018-08-25T11:12:33.033Z,14.38
2018-08-25T11:13:33.035Z,14.45
2018-08-25T11:14:32.998Z,14.39
2018-08-25T11:15:32.945Z,14.30
2018-08-25T11:16:33.051Z,14.29
2018-08-25T11:17:32.937Z,14.30
2018-08-25T11:18:32.918Z,14.30
2018-08-25T11:19:32.917Z,14.29
2018-08-25T11:20:32.937Z,14.23
2018-08-25T11:21:32.884Z,14.26
2018-08-25T11:22:32.870Z,14.27
2018-08-25T11:23:32.885Z,14.36
2018-08-25T11:24:32.873Z,14.42
2018-08-25T11:25:32.842Z,14.46
2018-08-25T11:26:32.875Z,14.48
2018-08-25T11:27:32.841Z,14.46
2018-08-25T11:28:32.846Z,14.57
2018-08-25T11:29:32.798Z,14.69
2018-08-25T11:30:32.954Z,14.71
2018-08-25T11:31:32.785Z,14.72
2018-08-25T11:32:32.786Z,14.75
2018-08-25T11:33:32.756Z,14.87
2018-08-25T11:34:32.744Z,14.71
2018-08-25T11:35:32.850Z,14.80
2018-08-25T11:36:32.725Z,14.91
2018-08-25T11:37:32.772Z,15.04
2018-08-25T11:38:32.724Z,15.01
2018-08-25T11:39:32.686Z,15.09
2018-08-25T11:40:32.698Z,15.16
2018-08-25T11:41:32.667Z,15.11
2018-08-25T11:42:32.656Z,15.11
2018-08-25T11:43:32.644Z,15.07
2018-08-25T11:44:32.693Z,15.27
2018-08-25T11:45:32.637Z,15.33
2018-08-25T11:46:32.617Z,15.27
2018-08-25T11:47:32.599Z,15.31
2018-08-25T11:48:32.607Z,15.22
2018-08-25T11:49:32.580Z,15.16
2018-08-25T11:50:32.629Z,15.22
2018-08-25T11:51:32.561Z,15.31
2018-08-25T11:52:32.551Z,15.22
2018-08-25T11:53:32.534Z,15.30
2018-08-25T11:54:32.542Z,15.22
2018-08-25T11:55:32.525Z,15.27
2018-08-25T11:56:32.533Z,15.31
2018-08-25T11:57:32.492Z,15.38
2018-08-25T11:58:32.481Z,15.59
2018-08-25T11:59:32.476Z,15.64
2018-08-25T12:00:32.481Z,15.67
2018-08-25T12:01:32.449Z,15.77
2018-08-25T12:02:32.490Z,15.93
2018-08-25T12:03:32.536Z,15.99
2018-08-25T12:04:32.415Z,16.07
2018-08-25T12:05:32.421Z,15.93
2018-08-25T12:06:32.392Z,16.06
2018-08-25T12:07:32.382Z,16.08
2018-08-25T12:08:32.414Z,16.06
2018-08-25T12:09:32.479Z,15.96
2018-08-25T12:10:32.374Z,15.80
2018-08-25T12:11:32.345Z,15.67
2018-08-25T12:12:32.329Z,15.74
2018-08-25T12:13:32.318Z,15.89
2018-08-25T12:14:32.335Z,15.68
2018-08-25T12:15:32.296Z,15.59
2018-08-25T12:16:32.300Z,15.37
2018-08-25T12:17:32.278Z,15.23
2018-08-25T12:18:32.266Z,15.28
2018-08-25T12:19:32.253Z,15.22
2018-08-25T12:20:32.305Z,15.25
2018-08-25T12:21:32.248Z,15.27
2018-08-25T12:22:32.223Z,15.16
2018-08-25T12:23:32.209Z,15.19
2018-08-25T12:24:32.201Z,15.18
2018-08-25T12:25:32.193Z,15.12
2018-08-25T12:26:32.244Z,15.00
2018-08-25T12:27:32.167Z,15.07
2018-08-25T12:28:32.157Z,14.97
2018-08-25T12:29:32.182Z,15.03
2018-08-25T12:30:32.188Z,15.04
2018-08-25T12:31:32.135Z,14.97
2018-08-25T12:32:32.153Z,15.09
2018-08-25T12:33:32.188Z,15.03
2018-08-25T12:34:32.096Z,15.05
2018-08-25T12:35:32.083Z,15.05
2018-08-25T12:36:32.094Z,15.20
2018-08-25T12:37:32.069Z,15.23
2018-08-25T12:38:32.127Z,15.28
2018-08-25T12:39:32.165Z,15.38
2018-08-25T12:40:32.107Z,15.44
2018-08-25T12:41:32.195Z,15.34
2018-08-25T12:42:32.005Z,15.28
2018-08-25T12:43:32.209Z,15.23
2018-08-25T12:44:31.983Z,15.31
2018-08-25T12:45:31.982Z,15.46
2018-08-25T12:46:31.994Z,15.38
2018-08-25T12:47:31.965Z,15.44
2018-08-25T12:48:31.944Z,15.56
2018-08-25T12:49:31.929Z,15.71
2018-08-25T12:50:31.917Z,15.76
2018-08-25T12:51:32.006Z,15.77
2018-08-25T12:52:31.911Z,15.85